sensor_id;sensor_type;location;lat;lon;timestamp;P1;durP1;ratioP1;P2;durP2;ratioP2
9667;SDS011;4872;48.316;10.650;2023-08-06T04:08:26;4.23;;;3.10;;
9667;SDS011;4872;48.316;10.650;2023-08-06T04:10:52;3.00;;;2.80;;
9667;SDS011;4872;48.316;10.650;2023-08-06T04:13:19;5.93;;;2.90;;
9667;SDS011;4872;48.316;10.650;2023-08-06T04:15:46;3.07;;;2.77;;
9667;SDS011;4872;48.316;10.650;2023-08-06T04:18:13;4.07;;;2.77;;
9667;SDS011;4872;48.316;10.650;2023-08-06T04:20:43;3.13;;;2.77;;
9667;SDS011;4872;48.316;10.650;2023-08-06T04:23:10;3.00;;;2.70;;
9667;SDS011;4872;48.316;10.650;2023-08-06T04:25:39;3.50;;;2.80;;
9667;SDS011;4872;48.316;10.650;2023-08-06T04:28:06;2.90;;;2.60;;
9667;SDS011;4872;48.316;10.650;2023-08-06T04:30:33;2.67;;;2.30;;
9667;SDS011;4872;48.316;10.650;2023-08-06T04:33:00;2.90;;;2.67;;
9667;SDS011;4872;48.316;10.650;2023-08-06T04:35:27;4.17;;;2.87;;
9667;SDS011;4872;48.316;10.650;2023-08-06T04:37:54;3.20;;;2.90;;
9667;SDS011;4872;48.316;10.650;2023-08-06T04:40:20;3.43;;;3.03;;
9667;SDS011;4872;48.316;10.650;2023-08-06T04:42:48;3.23;;;2.73;;
9667;SDS011;4872;48.316;10.650;2023-08-06T04:45:15;3.13;;;2.83;;
9667;SDS011;4872;48.316;10.650;2023-08-06T04:47:42;2.80;;;2.60;;
9667;SDS011;4872;48.316;10.650;2023-08-06T04:50:09;4.23;;;3.03;;
9667;SDS011;4872;48.316;10.650;2023-08-06T04:52:37;2.83;;;2.53;;
9667;SDS011;4872;48.316;10.650;2023-08-06T04:55:04;3.73;;;3.40;;
9667;SDS011;4872;48.316;10.650;2023-08-06T04:57:31;3.00;;;2.50;;
9667;SDS011;4872;48.316;10.650;2023-08-06T04:59:59;2.87;;;2.63;;
9667;SDS011;4872;48.316;10.650;2023-08-06T05:02:26;3.33;;;2.73;;
9667;SDS011;4872;48.316;10.650;2023-08-06T05:04:53;3.43;;;2.70;;
9667;SDS011;4872;48.316;10.650;2023-08-06T05:07:20;2.60;;;2.40;;
9667;SDS011;4872;48.316;10.650;2023-08-06T05:09:46;3.07;;;2.70;;
9667;SDS011;4872;48.316;10.650;2023-08-06T05:12:13;2.60;;;2.37;;
9667;SDS011;4872;48.316;10.650;2023-08-06T05:14:40;2.93;;;2.27;;
9667;SDS011;4872;48.316;10.650;2023-08-06T05:17:08;3.00;;;2.43;;
9667;SDS011;4872;48.316;10.650;2023-08-06T05:19:35;3.73;;;2.63;;
9667;SDS011;4872;48.316;10.650;2023-08-06T05:22:01;3.27;;;2.87;;
9667;SDS011;4872;48.316;10.650;2023-08-06T05:24:28;2.70;;;2.50;;
9667;SDS011;4872;48.316;10.650;2023-08-06T05:26:56;2.73;;;2.53;;
9667;SDS011;4872;48.316;10.650;2023-08-06T05:29:23;3.37;;;2.20;;
9667;SDS011;4872;48.316;10.650;2023-08-06T05:31:50;4.00;;;2.90;;
9667;SDS011;4872;48.316;10.650;2023-08-06T05:34:18;2.63;;;2.40;;
9667;SDS011;4872;48.316;10.650;2023-08-06T05:36:44;2.53;;;2.00;;
9667;SDS011;4872;48.316;10.650;2023-08-06T05:39:11;2.70;;;2.20;;
9667;SDS011;4872;48.316;10.650;2023-08-06T05:41:38;2.30;;;2.10;;
9667;SDS011;4872;48.316;10.650;2023-08-06T05:44:05;2.50;;;2.30;;
9667;SDS011;4872;48.316;10.650;2023-08-06T05:46:31;2.13;;;1.90;;
9667;SDS011;4872;48.316;10.650;2023-08-06T05:48:58;1.90;;;1.80;;
9667;SDS011;4872;48.316;10.650;2023-08-06T05:51:26;4.33;;;2.20;;
9667;SDS011;4872;48.316;10.650;2023-08-06T05:53:53;2.50;;;2.30;;
9667;SDS011;4872;48.316;10.650;2023-08-06T05:56:20;2.50;;;2.27;;
9667;SDS011;4872;48.316;10.650;2023-08-06T05:58:47;2.30;;;2.00;;
9667;SDS011;4872;48.316;10.650;2023-08-06T06:01:15;2.13;;;1.70;;
9667;SDS011;4872;48.316;10.650;2023-08-06T06:03:42;2.70;;;2.47;;
9667;SDS011;4872;48.316;10.650;2023-08-06T06:06:09;2.27;;;2.00;;
9667;SDS011;4872;48.316;10.650;2023-08-06T06:08:37;3.10;;;2.23;;
9667;SDS011;4872;48.316;10.650;2023-08-06T06:11:03;3.23;;;2.20;;
9667;SDS011;4872;48.316;10.650;2023-08-06T06:13:30;3.30;;;2.40;;
9667;SDS011;4872;48.316;10.650;2023-08-06T06:15:57;2.40;;;1.90;;
9667;SDS011;4872;48.316;10.650;2023-08-06T06:18:24;3.73;;;2.37;;
9667;SDS011;4872;48.316;10.650;2023-08-06T06:20:50;2.57;;;1.90;;
9667;SDS011;4872;48.316;10.650;2023-08-06T06:23:17;2.40;;;2.20;;
9667;SDS011;4872;48.316;10.650;2023-08-06T06:25:46;2.50;;;2.20;;
9667;SDS011;4872;48.316;10.650;2023-08-06T06:28:14;2.17;;;1.70;;
9667;SDS011;4872;48.316;10.650;2023-08-06T06:30:41;2.53;;;1.50;;
9667;SDS011;4872;48.316;10.650;2023-08-06T06:33:08;3.43;;;1.80;;
9667;SDS011;4872;48.316;10.650;2023-08-06T06:35:35;1.77;;;1.67;;
9667;SDS011;4872;48.316;10.650;2023-08-06T06:38:02;2.20;;;1.67;;
9667;SDS011;4872;48.316;10.650;2023-08-06T06:40:29;2.27;;;1.77;;
9667;SDS011;4872;48.316;10.650;2023-08-06T06:42:57;3.10;;;2.03;;
9667;SDS011;4872;48.316;10.650;2023-08-06T06:45:24;2.60;;;2.13;;
9667;SDS011;4872;48.316;10.650;2023-08-06T06:47:51;2.53;;;2.03;;
9667;SDS011;4872;48.316;10.650;2023-08-06T06:50:17;2.63;;;1.83;;
9667;SDS011;4872;48.316;10.650;2023-08-06T06:52:44;3.43;;;1.90;;
9667;SDS011;4872;48.316;10.650;2023-08-06T06:55:11;1.70;;;1.60;;
9667;SDS011;4872;48.316;10.650;2023-08-06T06:57:37;2.83;;;2.00;;
9667;SDS011;4872;48.316;10.650;2023-08-06T07:00:06;2.27;;;1.90;;
9667;SDS011;4872;48.316;10.650;2023-08-06T07:02:33;2.20;;;1.70;;
9667;SDS011;4872;48.316;10.650;2023-08-06T07:05:00;2.13;;;1.93;;
9667;SDS011;4872;48.316;10.650;2023-08-06T07:07:27;2.50;;;1.70;;
9667;SDS011;4872;48.316;10.650;2023-08-06T07:09:54;3.63;;;1.80;;
9667;SDS011;4872;48.316;10.650;2023-08-06T07:12:20;2.23;;;1.33;;
9667;SDS011;4872;48.316;10.650;2023-08-06T07:14:49;1.70;;;1.60;;
9667;SDS011;4872;48.316;10.650;2023-08-06T07:17:17;1.83;;;1.30;;
9667;SDS011;4872;48.316;10.650;2023-08-06T07:19:43;1.77;;;1.67;;
9667;SDS011;4872;48.316;10.650;2023-08-06T07:22:10;1.90;;;1.47;;
9667;SDS011;4872;48.316;10.650;2023-08-06T07:24:37;1.77;;;1.40;;
9667;SDS011;4872;48.316;10.650;2023-08-06T07:27:04;2.10;;;1.87;;
9667;SDS011;4872;48.316;10.650;2023-08-06T07:29:31;1.23;;;1.13;;
9667;SDS011;4872;48.316;10.650;2023-08-06T07:31:58;1.83;;;1.50;;
9667;SDS011;4872;48.316;10.650;2023-08-06T07:34:26;2.70;;;1.43;;
9667;SDS011;4872;48.316;10.650;2023-08-06T07:36:53;2.57;;;1.20;;
9667;SDS011;4872;48.316;10.650;2023-08-06T07:39:20;3.97;;;1.60;;
9667;SDS011;4872;48.316;10.650;2023-08-06T07:41:47;1.73;;;1.00;;
9667;SDS011;4872;48.316;10.650;2023-08-06T07:44:14;1.00;;;0.70;;
9667;SDS011;4872;48.316;10.650;2023-08-06T07:46:41;1.30;;;1.13;;
9667;SDS011;4872;48.316;10.650;2023-08-06T07:49:08;2.27;;;0.90;;
9667;SDS011;4872;48.316;10.650;2023-08-06T07:51:37;1.10;;;1.00;;
9667;SDS011;4872;48.316;10.650;2023-08-06T07:54:04;1.27;;;1.00;;
9667;SDS011;4872;48.316;10.650;2023-08-06T07:56:31;1.93;;;1.10;;
9667;SDS011;4872;48.316;10.650;2023-08-06T07:58:58;2.10;;;0.80;;
9667;SDS011;4872;48.316;10.650;2023-08-06T08:01:25;2.10;;;1.03;;
9667;SDS011;4872;48.316;10.650;2023-08-06T08:03:52;1.70;;;1.60;;
9667;SDS011;4872;48.316;10.650;2023-08-06T08:06:19;1.67;;;1.10;;
9667;SDS011;4872;48.316;10.650;2023-08-06T08:08:47;1.57;;;1.07;;
9667;SDS011;4872;48.316;10.650;2023-08-06T08:11:14;1.47;;;1.03;;
9667;SDS011;4872;48.316;10.650;2023-08-06T08:13:41;2.23;;;1.10;;
9667;SDS011;4872;48.316;10.650;2023-08-06T08:16:07;1.10;;;1.00;;
9667;SDS011;4872;48.316;10.650;2023-08-06T08:18:34;1.73;;;1.10;;
9667;SDS011;4872;48.316;10.650;2023-08-06T08:21:01;1.07;;;1.00;;
9667;SDS011;4872;48.316;10.650;2023-08-06T08:23:28;0.87;;;0.87;;
9667;SDS011;4872;48.316;10.650;2023-08-06T08:25:57;1.03;;;1.00;;
9667;SDS011;4872;48.316;10.650;2023-08-06T08:28:24;1.60;;;1.20;;
9667;SDS011;4872;48.316;10.650;2023-08-06T08:30:51;1.10;;;0.90;;
9667;SDS011;4872;48.316;10.650;2023-08-06T08:33:17;0.80;;;0.80;;
9667;SDS011;4872;48.316;10.650;2023-08-06T08:35:45;2.23;;;1.10;;
9667;SDS011;4872;48.316;10.650;2023-08-06T08:38:12;1.90;;;1.03;;
9667;SDS011;4872;48.316;10.650;2023-08-06T08:40:41;0.73;;;0.70;;
9667;SDS011;4872;48.316;10.650;2023-08-06T08:43:12;1.23;;;0.90;;
9667;SDS011;4872;48.316;10.650;2023-08-06T08:45:41;0.70;;;0.70;;
9667;SDS011;4872;48.316;10.650;2023-08-06T08:48:08;1.30;;;0.60;;
9667;SDS011;4872;48.316;10.650;2023-08-06T08:50:39;2.30;;;0.70;;
9667;SDS011;4872;48.316;10.650;2023-08-06T08:53:06;1.47;;;0.80;;
9667;SDS011;4872;48.316;10.650;2023-08-06T08:55:33;0.70;;;0.70;;
9667;SDS011;4872;48.316;10.650;2023-08-06T08:58:00;0.90;;;0.70;;
9667;SDS011;4872;48.316;10.650;2023-08-06T09:00:28;0.90;;;0.70;;
9667;SDS011;4872;48.316;10.650;2023-08-06T09:02:55;1.53;;;0.80;;
9667;SDS011;4872;48.316;10.650;2023-08-06T09:05:24;0.60;;;0.60;;
9667;SDS011;4872;48.316;10.650;2023-08-06T09:07:53;0.70;;;0.70;;
9667;SDS011;4872;48.316;10.650;2023-08-06T09:10:22;1.13;;;0.80;;
9667;SDS011;4872;48.316;10.650;2023-08-06T09:12:50;1.07;;;0.70;;
9667;SDS011;4872;48.316;10.650;2023-08-06T09:15:19;1.07;;;0.70;;
9667;SDS011;4872;48.316;10.650;2023-08-06T09:17:47;0.50;;;0.50;;
9667;SDS011;4872;48.316;10.650;2023-08-06T09:20:14;1.50;;;1.00;;
9667;SDS011;4872;48.316;10.650;2023-08-06T09:22:42;0.80;;;0.77;;
9667;SDS011;4872;48.316;10.650;2023-08-06T09:25:09;1.80;;;0.70;;
9667;SDS011;4872;48.316;10.650;2023-08-06T09:27:36;0.53;;;0.53;;
9667;SDS011;4872;48.316;10.650;2023-08-06T09:30:04;1.63;;;1.00;;
9667;SDS011;4872;48.316;10.650;2023-08-06T09:32:44;0.80;;;0.77;;
9667;SDS011;4872;48.316;10.650;2023-08-06T09:35:16;1.10;;;0.77;;
9667;SDS011;4872;48.316;10.650;2023-08-06T09:37:43;0.73;;;0.70;;
9667;SDS011;4872;48.316;10.650;2023-08-06T09:40:26;1.53;;;0.70;;
9667;SDS011;4872;48.316;10.650;2023-08-06T09:42:53;2.40;;;1.63;;
9667;SDS011;4872;48.316;10.650;2023-08-06T09:45:20;1.67;;;0.70;;
9667;SDS011;4872;48.316;10.650;2023-08-06T09:47:48;2.17;;;1.00;;
9667;SDS011;4872;48.316;10.650;2023-08-06T09:50:16;1.90;;;0.93;;
9667;SDS011;4872;48.316;10.650;2023-08-06T09:52:44;0.70;;;0.70;;
9667;SDS011;4872;48.316;10.650;2023-08-06T09:55:11;1.37;;;0.70;;
9667;SDS011;4872;48.316;10.650;2023-08-06T09:57:39;0.60;;;0.60;;
9667;SDS011;4872;48.316;10.650;2023-08-06T10:00:06;1.93;;;0.70;;
9667;SDS011;4872;48.316;10.650;2023-08-06T10:02:35;1.60;;;0.70;;
9667;SDS011;4872;48.316;10.650;2023-08-06T10:05:03;0.63;;;0.50;;
9667;SDS011;4872;48.316;10.650;2023-08-06T10:07:32;0.50;;;0.50;;
9667;SDS011;4872;48.316;10.650;2023-08-06T10:10:00;0.60;;;0.60;;
9667;SDS011;4872;48.316;10.650;2023-08-06T10:12:28;0.83;;;0.53;;
9667;SDS011;4872;48.316;10.650;2023-08-06T10:14:59;1.27;;;0.60;;
9667;SDS011;4872;48.316;10.650;2023-08-06T10:17:31;0.60;;;0.60;;
9667;SDS011;4872;48.316;10.650;2023-08-06T10:19:59;0.50;;;0.50;;
9667;SDS011;4872;48.316;10.650;2023-08-06T10:22:26;1.00;;;0.53;;
9667;SDS011;4872;48.316;10.650;2023-08-06T10:24:54;0.80;;;0.60;;
9667;SDS011;4872;48.316;10.650;2023-08-06T10:27:27;0.50;;;0.50;;
9667;SDS011;4872;48.316;10.650;2023-08-06T10:29:55;0.43;;;0.43;;
9667;SDS011;4872;48.316;10.650;2023-08-06T10:32:26;0.63;;;0.50;;
9667;SDS011;4872;48.316;10.650;2023-08-06T10:35:27;0.60;;;0.60;;
9667;SDS011;4872;48.316;10.650;2023-08-06T10:37:58;0.67;;;0.50;;
9667;SDS011;4872;48.316;10.650;2023-08-06T10:40:27;0.70;;;0.70;;
9667;SDS011;4872;48.316;10.650;2023-08-06T10:42:55;0.57;;;0.57;;
9667;SDS011;4872;48.316;10.650;2023-08-06T10:45:24;0.60;;;0.60;;
9667;SDS011;4872;48.316;10.650;2023-08-06T10:47:53;1.30;;;0.60;;
9667;SDS011;4872;48.316;10.650;2023-08-06T10:50:21;0.73;;;0.50;;
9667;SDS011;4872;48.316;10.650;2023-08-06T10:52:48;0.63;;;0.40;;
9667;SDS011;4872;48.316;10.650;2023-08-06T10:55:21;0.60;;;0.60;;
9667;SDS011;4872;48.316;10.650;2023-08-06T10:57:51;0.50;;;0.50;;
9667;SDS011;4872;48.316;10.650;2023-08-06T11:00:18;1.63;;;0.63;;
9667;SDS011;4872;48.316;10.650;2023-08-06T11:02:46;0.60;;;0.60;;
9667;SDS011;4872;48.316;10.650;2023-08-06T11:05:14;1.23;;;0.57;;
9667;SDS011;4872;48.316;10.650;2023-08-06T11:07:41;0.50;;;0.50;;
9667;SDS011;4872;48.316;10.650;2023-08-06T11:10:09;0.50;;;0.50;;
9667;SDS011;4872;48.316;10.650;2023-08-06T11:12:36;0.50;;;0.50;;
9667;SDS011;4872;48.316;10.650;2023-08-06T11:15:05;0.50;;;0.50;;
9667;SDS011;4872;48.316;10.650;2023-08-06T11:17:33;0.40;;;0.40;;
9667;SDS011;4872;48.316;10.650;2023-08-06T11:20:00;0.47;;;0.30;;
9667;SDS011;4872;48.316;10.650;2023-08-06T11:22:27;0.70;;;0.50;;
9667;SDS011;4872;48.316;10.650;2023-08-06T11:24:54;0.50;;;0.50;;
9667;SDS011;4872;48.316;10.650;2023-08-06T11:27:21;0.40;;;0.40;;
9667;SDS011;4872;48.316;10.650;2023-08-06T11:29:48;0.60;;;0.60;;
9667;SDS011;4872;48.316;10.650;2023-08-06T11:32:16;0.97;;;0.50;;
9667;SDS011;4872;48.316;10.650;2023-08-06T11:34:43;1.17;;;0.50;;
9667;SDS011;4872;48.316;10.650;2023-08-06T11:37:10;0.40;;;0.40;;
9667;SDS011;4872;48.316;10.650;2023-08-06T11:39:37;0.40;;;0.40;;
9667;SDS011;4872;48.316;10.650;2023-08-06T11:42:05;0.57;;;0.50;;
9667;SDS011;4872;48.316;10.650;2023-08-06T11:44:33;0.60;;;0.60;;
9667;SDS011;4872;48.316;10.650;2023-08-06T11:47:02;0.53;;;0.53;;
9667;SDS011;4872;48.316;10.650;2023-08-06T11:49:39;0.90;;;0.90;;
9667;SDS011;4872;48.316;10.650;2023-08-06T11:52:18;0.60;;;0.60;;
9667;SDS011;4872;48.316;10.650;2023-08-06T11:54:46;0.70;;;0.70;;
9667;SDS011;4872;48.316;10.650;2023-08-06T11:57:15;0.67;;;0.67;;
9667;SDS011;4872;48.316;10.650;2023-08-06T11:59:42;0.50;;;0.50;;
9667;SDS011;4872;48.316;10.650;2023-08-06T12:02:09;0.50;;;0.50;;
9667;SDS011;4872;48.316;10.650;2023-08-06T12:07:29;0.57;;;0.57;;
9667;SDS011;4872;48.316;10.650;2023-08-06T12:09:56;0.40;;;0.40;;
9667;SDS011;4872;48.316;10.650;2023-08-06T12:12:23;1.73;;;0.60;;
9667;SDS011;4872;48.316;10.650;2023-08-06T12:14:50;0.63;;;0.63;;
9667;SDS011;4872;48.316;10.650;2023-08-06T12:17:17;0.50;;;0.50;;
9667;SDS011;4872;48.316;10.650;2023-08-06T12:19:44;0.77;;;0.50;;
9667;SDS011;4872;48.316;10.650;2023-08-06T12:22:13;0.53;;;0.53;;
9667;SDS011;4872;48.316;10.650;2023-08-06T12:24:41;0.60;;;0.57;;
9667;SDS011;4872;48.316;10.650;2023-08-06T12:27:08;0.50;;;0.50;;
9667;SDS011;4872;48.316;10.650;2023-08-06T12:29:34;0.50;;;0.50;;
9667;SDS011;4872;48.316;10.650;2023-08-06T12:32:01;0.50;;;0.50;;
9667;SDS011;4872;48.316;10.650;2023-08-06T12:34:29;0.40;;;0.40;;
9667;SDS011;4872;48.316;10.650;2023-08-06T12:36:55;0.47;;;0.47;;
9667;SDS011;4872;48.316;10.650;2023-08-06T12:39:24;0.40;;;0.40;;
9667;SDS011;4872;48.316;10.650;2023-08-06T12:41:53;0.40;;;0.40;;
9667;SDS011;4872;48.316;10.650;2023-08-06T12:44:20;0.50;;;0.50;;
9667;SDS011;4872;48.316;10.650;2023-08-06T12:46:47;0.80;;;0.47;;
9667;SDS011;4872;48.316;10.650;2023-08-06T12:49:14;0.87;;;0.50;;
9667;SDS011;4872;48.316;10.650;2023-08-06T12:51:40;0.50;;;0.50;;
9667;SDS011;4872;48.316;10.650;2023-08-06T12:54:08;0.40;;;0.40;;
9667;SDS011;4872;48.316;10.650;2023-08-06T12:56:36;0.43;;;0.43;;
9667;SDS011;4872;48.316;10.650;2023-08-06T12:59:02;0.67;;;0.67;;
9667;SDS011;4872;48.316;10.650;2023-08-06T13:01:29;1.17;;;0.50;;
9667;SDS011;4872;48.316;10.650;2023-08-06T13:03:56;0.50;;;0.50;;
9667;SDS011;4872;48.316;10.650;2023-08-06T13:06:24;0.50;;;0.50;;
9667;SDS011;4872;48.316;10.650;2023-08-06T13:08:50;0.70;;;0.70;;
9667;SDS011;4872;48.316;10.650;2023-08-06T13:11:17;0.50;;;0.50;;
9667;SDS011;4872;48.316;10.650;2023-08-06T13:13:46;0.50;;;0.50;;
9667;SDS011;4872;48.316;10.650;2023-08-06T13:16:13;0.40;;;0.40;;
9667;SDS011;4872;48.316;10.650;2023-08-06T13:18:39;0.73;;;0.63;;
9667;SDS011;4872;48.316;10.650;2023-08-06T13:21:06;0.67;;;0.47;;
9667;SDS011;4872;48.316;10.650;2023-08-06T13:23:33;1.20;;;1.10;;
9667;SDS011;4872;48.316;10.650;2023-08-06T13:26:00;0.60;;;0.60;;
9667;SDS011;4872;48.316;10.650;2023-08-06T13:28:26;0.60;;;0.60;;
9667;SDS011;4872;48.316;10.650;2023-08-06T13:30:54;0.93;;;0.80;;
9667;SDS011;4872;48.316;10.650;2023-08-06T13:33:21;1.10;;;1.00;;
9667;SDS011;4872;48.316;10.650;2023-08-06T13:35:48;1.20;;;1.10;;
9667;SDS011;4872;48.316;10.650;2023-08-06T13:38:15;4.63;;;3.20;;
9667;SDS011;4872;48.316;10.650;2023-08-06T13:40:42;4.33;;;2.83;;
9667;SDS011;4872;48.316;10.650;2023-08-06T13:43:09;2.67;;;1.67;;
9667;SDS011;4872;48.316;10.650;2023-08-06T13:45:36;1.73;;;1.47;;
9667;SDS011;4872;48.316;10.650;2023-08-06T13:48:04;1.67;;;1.07;;
9667;SDS011;4872;48.316;10.650;2023-08-06T13:50:31;1.10;;;0.70;;
9667;SDS011;4872;48.316;10.650;2023-08-06T13:52:58;0.83;;;0.77;;
9667;SDS011;4872;48.316;10.650;2023-08-06T13:55:25;1.23;;;0.80;;
9667;SDS011;4872;48.316;10.650;2023-08-06T13:57:51;0.50;;;0.50;;
9667;SDS011;4872;48.316;10.650;2023-08-06T14:00:18;0.60;;;0.60;;
9667;SDS011;4872;48.316;10.650;2023-08-06T14:02:45;1.03;;;0.63;;
9667;SDS011;4872;48.316;10.650;2023-08-06T14:05:13;0.60;;;0.60;;
9667;SDS011;4872;48.316;10.650;2023-08-06T14:07:40;0.60;;;0.60;;
9667;SDS011;4872;48.316;10.650;2023-08-06T14:10:07;0.50;;;0.50;;
9667;SDS011;4872;48.316;10.650;2023-08-06T14:12:35;0.60;;;0.60;;
9667;SDS011;4872;48.316;10.650;2023-08-06T14:15:02;0.40;;;0.40;;
9667;SDS011;4872;48.316;10.650;2023-08-06T14:17:29;0.70;;;0.50;;
9667;SDS011;4872;48.316;10.650;2023-08-06T14:19:55;0.50;;;0.50;;
9667;SDS011;4872;48.316;10.650;2023-08-06T14:22:24;0.50;;;0.50;;
9667;SDS011;4872;48.316;10.650;2023-08-06T14:24:51;0.60;;;0.60;;
9667;SDS011;4872;48.316;10.650;2023-08-06T14:27:18;0.60;;;0.60;;
9667;SDS011;4872;48.316;10.650;2023-08-06T14:29:45;1.20;;;0.77;;
9667;SDS011;4872;48.316;10.650;2023-08-06T14:32:12;0.87;;;0.87;;
9667;SDS011;4872;48.316;10.650;2023-08-06T14:34:39;0.73;;;0.73;;
9667;SDS011;4872;48.316;10.650;2023-08-06T14:37:06;1.03;;;0.70;;
9667;SDS011;4872;48.316;10.650;2023-08-06T14:39:34;1.07;;;0.90;;
9667;SDS011;4872;48.316;10.650;2023-08-06T14:42:01;0.80;;;0.80;;
9667;SDS011;4872;48.316;10.650;2023-08-06T14:44:30;0.80;;;0.80;;
9667;SDS011;4872;48.316;10.650;2023-08-06T14:46:57;0.60;;;0.60;;
9667;SDS011;4872;48.316;10.650;2023-08-06T14:49:24;0.60;;;0.60;;
9667;SDS011;4872;48.316;10.650;2023-08-06T14:51:51;1.00;;;0.70;;
9667;SDS011;4872;48.316;10.650;2023-08-06T14:54:17;1.03;;;0.90;;
9667;SDS011;4872;48.316;10.650;2023-08-06T14:56:45;0.70;;;0.70;;
9667;SDS011;4872;48.316;10.650;2023-08-06T14:59:12;0.73;;;0.70;;
9667;SDS011;4872;48.316;10.650;2023-08-06T15:01:39;0.90;;;0.90;;
9667;SDS011;4872;48.316;10.650;2023-08-06T15:04:06;1.50;;;0.90;;
9667;SDS011;4872;48.316;10.650;2023-08-06T15:06:33;0.80;;;0.80;;
9667;SDS011;4872;48.316;10.650;2023-08-06T15:08:59;0.80;;;0.80;;
9667;SDS011;4872;48.316;10.650;2023-08-06T15:11:26;1.20;;;1.10;;
9667;SDS011;4872;48.316;10.650;2023-08-06T15:14:00;0.87;;;0.87;;
9667;SDS011;4872;48.316;10.650;2023-08-06T15:16:30;0.80;;;0.80;;
9667;SDS011;4872;48.316;10.650;2023-08-06T15:18:59;0.73;;;0.70;;
9667;SDS011;4872;48.316;10.650;2023-08-06T15:21:25;0.70;;;0.70;;
9667;SDS011;4872;48.316;10.650;2023-08-06T15:23:52;0.60;;;0.60;;
9667;SDS011;4872;48.316;10.650;2023-08-06T15:26:19;0.80;;;0.80;;
9667;SDS011;4872;48.316;10.650;2023-08-06T15:28:46;0.77;;;0.77;;
9667;SDS011;4872;48.316;10.650;2023-08-06T15:31:14;0.97;;;0.73;;
9667;SDS011;4872;48.316;10.650;2023-08-06T15:33:41;0.70;;;0.70;;
9667;SDS011;4872;48.316;10.650;2023-08-06T15:36:07;0.90;;;0.90;;
9667;SDS011;4872;48.316;10.650;2023-08-06T15:38:34;0.90;;;0.90;;
9667;SDS011;4872;48.316;10.650;2023-08-06T15:41:01;0.63;;;0.60;;
9667;SDS011;4872;48.316;10.650;2023-08-06T15:43:27;0.60;;;0.60;;
9667;SDS011;4872;48.316;10.650;2023-08-06T15:45:54;0.60;;;0.60;;
9667;SDS011;4872;48.316;10.650;2023-08-06T15:48:23;1.30;;;0.80;;
9667;SDS011;4872;48.316;10.650;2023-08-06T15:50:49;0.67;;;0.67;;
9667;SDS011;4872;48.316;10.650;2023-08-06T15:53:16;0.53;;;0.53;;
9667;SDS011;4872;48.316;10.650;2023-08-06T15:55:43;0.77;;;0.70;;
9667;SDS011;4872;48.316;10.650;2023-08-06T15:58:11;0.50;;;0.50;;
9667;SDS011;4872;48.316;10.650;2023-08-06T16:00:38;1.23;;;0.50;;
9667;SDS011;4872;48.316;10.650;2023-08-06T16:03:05;0.60;;;0.60;;
9667;SDS011;4872;48.316;10.650;2023-08-06T16:05:33;0.70;;;0.60;;
9667;SDS011;4872;48.316;10.650;2023-08-06T16:08:00;0.60;;;0.60;;
9667;SDS011;4872;48.316;10.650;2023-08-06T16:10:27;0.60;;;0.60;;
9667;SDS011;4872;48.316;10.650;2023-08-06T16:12:54;0.90;;;0.80;;
9667;SDS011;4872;48.316;10.650;2023-08-06T16:15:20;0.60;;;0.60;;
9667;SDS011;4872;48.316;10.650;2023-08-06T16:17:47;0.67;;;0.67;;
9667;SDS011;4872;48.316;10.650;2023-08-06T16:20:14;0.57;;;0.57;;
9667;SDS011;4872;48.316;10.650;2023-08-06T16:22:42;1.07;;;0.70;;
9667;SDS011;4872;48.316;10.650;2023-08-06T16:25:09;0.50;;;0.50;;
9667;SDS011;4872;48.316;10.650;2023-08-06T16:27:37;0.60;;;0.50;;
9667;SDS011;4872;48.316;10.650;2023-08-06T16:30:05;0.60;;;0.60;;
9667;SDS011;4872;48.316;10.650;2023-08-06T16:32:32;0.50;;;0.50;;
9667;SDS011;4872;48.316;10.650;2023-08-06T16:35:00;0.73;;;0.73;;
9667;SDS011;4872;48.316;10.650;2023-08-06T16:37:27;0.77;;;0.77;;
9667;SDS011;4872;48.316;10.650;2023-08-06T16:39:55;0.87;;;0.70;;
9667;SDS011;4872;48.316;10.650;2023-08-06T16:42:22;1.03;;;0.67;;
9667;SDS011;4872;48.316;10.650;2023-08-06T16:44:49;0.60;;;0.60;;
9667;SDS011;4872;48.316;10.650;2023-08-06T16:47:16;0.70;;;0.70;;
9667;SDS011;4872;48.316;10.650;2023-08-06T16:49:43;0.60;;;0.60;;
9667;SDS011;4872;48.316;10.650;2023-08-06T16:52:10;0.90;;;0.70;;
9667;SDS011;4872;48.316;10.650;2023-08-06T16:54:36;1.27;;;0.70;;
9667;SDS011;4872;48.316;10.650;2023-08-06T16:57:05;1.37;;;0.93;;
9667;SDS011;4872;48.316;10.650;2023-08-06T16:59:32;0.80;;;0.80;;
9667;SDS011;4872;48.316;10.650;2023-08-06T17:01:59;0.80;;;0.60;;
9667;SDS011;4872;48.316;10.650;2023-08-06T17:04:25;0.60;;;0.60;;
9667;SDS011;4872;48.316;10.650;2023-08-06T17:06:52;1.17;;;0.70;;
9667;SDS011;4872;48.316;10.650;2023-08-06T17:09:19;0.60;;;0.60;;
9667;SDS011;4872;48.316;10.650;2023-08-06T17:11:46;1.33;;;0.80;;
9667;SDS011;4872;48.316;10.650;2023-08-06T17:14:14;1.50;;;0.70;;
9667;SDS011;4872;48.316;10.650;2023-08-06T17:16:41;2.40;;;1.00;;
9667;SDS011;4872;48.316;10.650;2023-08-06T17:19:08;0.70;;;0.70;;
9667;SDS011;4872;48.316;10.650;2023-08-06T17:21:35;1.43;;;1.00;;
9667;SDS011;4872;48.316;10.650;2023-08-06T17:24:03;1.20;;;1.03;;
9667;SDS011;4872;48.316;10.650;2023-08-06T17:26:30;0.80;;;0.73;;
9667;SDS011;4872;48.316;10.650;2023-08-06T17:28:56;0.90;;;0.90;;
9667;SDS011;4872;48.316;10.650;2023-08-06T17:31:24;1.17;;;1.00;;
9667;SDS011;4872;48.316;10.650;2023-08-06T17:33:51;2.00;;;1.00;;
9667;SDS011;4872;48.316;10.650;2023-08-06T17:36:18;0.83;;;0.83;;
9667;SDS011;4872;48.316;10.650;2023-08-06T17:38:45;0.80;;;0.80;;
9667;SDS011;4872;48.316;10.650;2023-08-06T17:41:12;0.97;;;0.87;;
9667;SDS011;4872;48.316;10.650;2023-08-06T17:43:39;0.90;;;0.90;;
9667;SDS011;4872;48.316;10.650;2023-08-06T17:46:05;0.70;;;0.70;;
9667;SDS011;4872;48.316;10.650;2023-08-06T17:48:34;2.00;;;1.10;;
9667;SDS011;4872;48.316;10.650;2023-08-06T17:51:00;1.53;;;0.87;;
9667;SDS011;4872;48.316;10.650;2023-08-06T17:53:27;0.87;;;0.87;;
9667;SDS011;4872;48.316;10.650;2023-08-06T17:55:54;0.90;;;0.90;;
9667;SDS011;4872;48.316;10.650;2023-08-06T17:58:21;0.90;;;0.90;;
9667;SDS011;4872;48.316;10.650;2023-08-06T18:00:48;1.10;;;1.00;;
9667;SDS011;4872;48.316;10.650;2023-08-06T18:03:15;1.60;;;0.90;;
9667;SDS011;4872;48.316;10.650;2023-08-06T18:05:43;1.00;;;0.90;;
9667;SDS011;4872;48.316;10.650;2023-08-06T18:08:10;1.33;;;1.00;;
9667;SDS011;4872;48.316;10.650;2023-08-06T18:10:37;1.10;;;1.10;;
9667;SDS011;4872;48.316;10.650;2023-08-06T18:13:04;2.27;;;0.90;;
9667;SDS011;4872;48.316;10.650;2023-08-06T18:15:31;1.03;;;0.93;;
9667;SDS011;4872;48.316;10.650;2023-08-06T18:17:57;0.90;;;0.90;;
9667;SDS011;4872;48.316;10.650;2023-08-06T18:20:24;2.50;;;1.00;;
9667;SDS011;4872;48.316;10.650;2023-08-06T18:22:52;0.90;;;0.90;;
9667;SDS011;4872;48.316;10.650;2023-08-06T18:25:19;2.30;;;1.00;;
9667;SDS011;4872;48.316;10.650;2023-08-06T18:27:46;1.10;;;1.00;;
9667;SDS011;4872;48.316;10.650;2023-08-06T18:30:13;1.00;;;0.90;;
9667;SDS011;4872;48.316;10.650;2023-08-06T18:32:40;1.13;;;0.90;;
9667;SDS011;4872;48.316;10.650;2023-08-06T18:35:07;1.33;;;1.07;;
9667;SDS011;4872;48.316;10.650;2023-08-06T18:37:35;1.13;;;1.10;;
9667;SDS011;4872;48.316;10.650;2023-08-06T18:40:05;0.80;;;0.80;;
9667;SDS011;4872;48.316;10.650;2023-08-06T18:42:33;0.90;;;0.90;;
9667;SDS011;4872;48.316;10.650;2023-08-06T18:45:00;0.90;;;0.90;;
9667;SDS011;4872;48.316;10.650;2023-08-06T18:47:27;1.20;;;1.10;;
9667;SDS011;4872;48.316;10.650;2023-08-06T18:49:54;0.90;;;0.90;;
9667;SDS011;4872;48.316;10.650;2023-08-06T18:52:20;1.07;;;0.80;;
9667;SDS011;4872;48.316;10.650;2023-08-06T18:54:47;1.10;;;1.00;;
9667;SDS011;4872;48.316;10.650;2023-08-06T18:57:15;1.10;;;1.00;;
9667;SDS011;4872;48.316;10.650;2023-08-06T18:59:43;1.10;;;1.00;;
9667;SDS011;4872;48.316;10.650;2023-08-06T19:02:11;2.27;;;1.00;;
9667;SDS011;4872;48.316;10.650;2023-08-06T19:04:37;1.00;;;0.83;;
9667;SDS011;4872;48.316;10.650;2023-08-06T19:07:04;1.63;;;1.00;;
9667;SDS011;4872;48.316;10.650;2023-08-06T19:09:31;0.73;;;0.73;;
9667;SDS011;4872;48.316;10.650;2023-08-06T19:11:58;0.90;;;0.90;;